sensor_id;sensor_type;location;lat;lon;timestamp;P1;durP1;ratioP1;P2;durP2;ratioP2
44606;SDS011;30315;46.072;14.474;2023-08-12T00:01:12;3.47;;;3.17;;
44606;SDS011;30315;46.072;14.474;2023-08-12T00:03:40;5.32;;;3.33;;
44606;SDS011;30315;46.072;14.474;2023-08-12T00:06:09;6.40;;;3.13;;
44606;SDS011;30315;46.072;14.474;2023-08-12T00:08:36;5.47;;;3.80;;
44606;SDS011;30315;46.072;14.474;2023-08-12T00:11:03;4.45;;;3.50;;
44606;SDS011;30315;46.072;14.474;2023-08-12T00:13:30;3.60;;;3.30;;
44606;SDS011;30315;46.072;14.474;2023-08-12T00:15:58;3.95;;;3.63;;
44606;SDS011;30315;46.072;14.474;2023-08-12T00:18:25;4.30;;;3.90;;
44606;SDS011;30315;46.072;14.474;2023-08-12T00:20:52;4.43;;;4.03;;
44606;SDS011;30315;46.072;14.474;2023-08-12T00:23:20;4.50;;;3.85;;
44606;SDS011;30315;46.072;14.474;2023-08-12T00:25:49;3.95;;;3.72;;
44606;SDS011;30315;46.072;14.474;2023-08-12T00:28:16;3.75;;;3.45;;
44606;SDS011;30315;46.072;14.474;2023-08-12T00:30:43;4.10;;;3.80;;
44606;SDS011;30315;46.072;14.474;2023-08-12T00:33:10;4.10;;;3.75;;
44606;SDS011;30315;46.072;14.474;2023-08-12T00:35:37;5.38;;;3.90;;
44606;SDS011;30315;46.072;14.474;2023-08-12T00:38:04;3.85;;;3.55;;
44606;SDS011;30315;46.072;14.474;2023-08-12T00:40:32;5.03;;;4.10;;
44606;SDS011;30315;46.072;14.474;2023-08-12T00:42:59;4.28;;;3.88;;
44606;SDS011;30315;46.072;14.474;2023-08-12T00:45:26;4.20;;;3.80;;
44606;SDS011;30315;46.072;14.474;2023-08-12T00:47:54;6.35;;;4.00;;
44606;SDS011;30315;46.072;14.474;2023-08-12T00:50:21;3.95;;;3.65;;
44606;SDS011;30315;46.072;14.474;2023-08-12T00:52:49;3.75;;;3.45;;
44606;SDS011;30315;46.072;14.474;2023-08-12T00:55:17;6.78;;;3.97;;
44606;SDS011;30315;46.072;14.474;2023-08-12T00:57:45;3.55;;;3.25;;
44606;SDS011;30315;46.072;14.474;2023-08-12T01:00:12;4.05;;;3.75;;
44606;SDS011;30315;46.072;14.474;2023-08-12T01:02:44;6.25;;;3.45;;
44606;SDS011;30315;46.072;14.474;2023-08-12T01:05:15;4.10;;;3.53;;
44606;SDS011;30315;46.072;14.474;2023-08-12T01:07:42;5.93;;;3.65;;
44606;SDS011;30315;46.072;14.474;2023-08-12T01:10:12;3.85;;;3.55;;
44606;SDS011;30315;46.072;14.474;2023-08-12T01:12:52;3.97;;;3.42;;
44606;SDS011;30315;46.072;14.474;2023-08-12T01:15:33;6.30;;;3.60;;
44606;SDS011;30315;46.072;14.474;2023-08-12T01:18:02;6.60;;;3.67;;
44606;SDS011;30315;46.072;14.474;2023-08-12T01:20:31;7.38;;;3.70;;
44606;SDS011;30315;46.072;14.474;2023-08-12T01:23:14;5.50;;;3.63;;
44606;SDS011;30315;46.072;14.474;2023-08-12T01:25:42;4.05;;;3.67;;
44606;SDS011;30315;46.072;14.474;2023-08-12T01:28:09;4.78;;;3.35;;
44606;SDS011;30315;46.072;14.474;2023-08-12T01:30:43;4.35;;;3.78;;
44606;SDS011;30315;46.072;14.474;2023-08-12T01:33:20;6.25;;;3.72;;
44606;SDS011;30315;46.072;14.474;2023-08-12T01:36:04;5.25;;;3.25;;
44606;SDS011;30315;46.072;14.474;2023-08-12T01:41:11;4.03;;;3.65;;
44606;SDS011;30315;46.072;14.474;2023-08-12T01:43:40;3.72;;;3.42;;
44606;SDS011;30315;46.072;14.474;2023-08-12T01:46:08;3.90;;;3.60;;
44606;SDS011;30315;46.072;14.474;2023-08-12T01:48:36;4.10;;;3.70;;
44606;SDS011;30315;46.072;14.474;2023-08-12T01:51:03;3.50;;;3.30;;
44606;SDS011;30315;46.072;14.474;2023-08-12T01:53:31;3.85;;;3.55;;
44606;SDS011;30315;46.072;14.474;2023-08-12T01:55:58;4.40;;;4.00;;
44606;SDS011;30315;46.072;14.474;2023-08-12T01:58:25;5.35;;;3.58;;
44606;SDS011;30315;46.072;14.474;2023-08-12T02:00:53;4.43;;;3.50;;
44606;SDS011;30315;46.072;14.474;2023-08-12T02:03:20;6.15;;;3.65;;
44606;SDS011;30315;46.072;14.474;2023-08-12T02:05:47;3.95;;;3.75;;
44606;SDS011;30315;46.072;14.474;2023-08-12T02:08:15;4.03;;;3.42;;
44606;SDS011;30315;46.072;14.474;2023-08-12T02:10:42;5.60;;;3.35;;
44606;SDS011;30315;46.072;14.474;2023-08-12T02:13:09;4.13;;;3.75;;
44606;SDS011;30315;46.072;14.474;2023-08-12T02:15:37;4.22;;;3.92;;
44606;SDS011;30315;46.072;14.474;2023-08-12T02:18:10;5.00;;;3.38;;
44606;SDS011;30315;46.072;14.474;2023-08-12T02:23:33;4.07;;;3.78;;
44606;SDS011;30315;46.072;14.474;2023-08-12T02:26:01;4.05;;;3.75;;
44606;SDS011;30315;46.072;14.474;2023-08-12T02:28:29;3.88;;;3.58;;
44606;SDS011;30315;46.072;14.474;2023-08-12T02:30:56;4.88;;;3.33;;
44606;SDS011;30315;46.072;14.474;2023-08-12T02:33:24;4.88;;;3.72;;
44606;SDS011;30315;46.072;14.474;2023-08-12T02:35:54;3.65;;;3.40;;
44606;SDS011;30315;46.072;14.474;2023-08-12T02:38:23;3.78;;;3.40;;
44606;SDS011;30315;46.072;14.474;2023-08-12T02:40:51;3.55;;;3.28;;
44606;SDS011;30315;46.072;14.474;2023-08-12T02:43:18;4.78;;;3.20;;
44606;SDS011;30315;46.072;14.474;2023-08-12T02:45:45;4.18;;;3.00;;
44606;SDS011;30315;46.072;14.474;2023-08-12T02:48:13;4.03;;;3.72;;
44606;SDS011;30315;46.072;14.474;2023-08-12T02:50:40;3.65;;;3.35;;
44606;SDS011;30315;46.072;14.474;2023-08-12T02:53:07;3.60;;;3.30;;
44606;SDS011;30315;46.072;14.474;2023-08-12T02:55:35;3.83;;;3.53;;
44606;SDS011;30315;46.072;14.474;2023-08-12T02:58:04;6.40;;;3.15;;
44606;SDS011;30315;46.072;14.474;2023-08-12T03:00:31;3.63;;;3.35;;
44606;SDS011;30315;46.072;14.474;2023-08-12T03:02:58;4.70;;;3.60;;
44606;SDS011;30315;46.072;14.474;2023-08-12T03:05:26;3.42;;;3.22;;
44606;SDS011;30315;46.072;14.474;2023-08-12T03:07:54;6.68;;;3.65;;
44606;SDS011;30315;46.072;14.474;2023-08-12T03:10:21;3.63;;;3.33;;
44606;SDS011;30315;46.072;14.474;2023-08-12T03:12:48;4.57;;;3.20;;
44606;SDS011;30315;46.072;14.474;2023-08-12T03:15:17;6.18;;;3.15;;
44606;SDS011;30315;46.072;14.474;2023-08-12T03:17:44;4.00;;;3.70;;
44606;SDS011;30315;46.072;14.474;2023-08-12T03:20:11;4.00;;;3.70;;
44606;SDS011;30315;46.072;14.474;2023-08-12T03:22:39;5.50;;;3.72;;
44606;SDS011;30315;46.072;14.474;2023-08-12T03:25:07;4.50;;;3.58;;
44606;SDS011;30315;46.072;14.474;2023-08-12T03:27:35;4.28;;;3.30;;
44606;SDS011;30315;46.072;14.474;2023-08-12T03:30:03;3.47;;;3.17;;
44606;SDS011;30315;46.072;14.474;2023-08-12T03:32:31;5.32;;;4.05;;
44606;SDS011;30315;46.072;14.474;2023-08-12T03:35:00;7.10;;;3.65;;
44606;SDS011;30315;46.072;14.474;2023-08-12T03:37:27;3.70;;;3.35;;
44606;SDS011;30315;46.072;14.474;2023-08-12T03:39:55;3.30;;;3.10;;
44606;SDS011;30315;46.072;14.474;2023-08-12T03:42:22;3.65;;;3.38;;
44606;SDS011;30315;46.072;14.474;2023-08-12T03:44:50;3.97;;;3.17;;
44606;SDS011;30315;46.072;14.474;2023-08-12T03:47:19;3.80;;;3.58;;
44606;SDS011;30315;46.072;14.474;2023-08-12T03:52:15;3.92;;;3.50;;
44606;SDS011;30315;46.072;14.474;2023-08-12T03:54:43;5.00;;;3.67;;
44606;SDS011;30315;46.072;14.474;2023-08-12T03:57:10;4.28;;;3.60;;
44606;SDS011;30315;46.072;14.474;2023-08-12T03:59:38;4.43;;;3.35;;
44606;SDS011;30315;46.072;14.474;2023-08-12T04:02:05;4.43;;;3.90;;
44606;SDS011;30315;46.072;14.474;2023-08-12T04:04:33;3.42;;;3.13;;
44606;SDS011;30315;46.072;14.474;2023-08-12T04:07:00;7.38;;;3.72;;
44606;SDS011;30315;46.072;14.474;2023-08-12T04:09:27;3.78;;;3.47;;
44606;SDS011;30315;46.072;14.474;2023-08-12T04:11:54;5.53;;;3.58;;
44606;SDS011;30315;46.072;14.474;2023-08-12T04:14:21;3.92;;;3.55;;
44606;SDS011;30315;46.072;14.474;2023-08-12T04:16:48;6.05;;;3.58;;
44606;SDS011;30315;46.072;14.474;2023-08-12T04:19:16;7.00;;;3.60;;
44606;SDS011;30315;46.072;14.474;2023-08-12T04:21:43;3.60;;;3.30;;
44606;SDS011;30315;46.072;14.474;2023-08-12T04:24:13;7.13;;;3.70;;
44606;SDS011;30315;46.072;14.474;2023-08-12T04:26:40;5.18;;;3.30;;
44606;SDS011;30315;46.072;14.474;2023-08-12T04:29:09;4.17;;;3.73;;
44606;SDS011;30315;46.072;14.474;2023-08-12T04:31:40;4.18;;;3.72;;
44606;SDS011;30315;46.072;14.474;2023-08-12T04:34:08;6.00;;;3.95;;
44606;SDS011;30315;46.072;14.474;2023-08-12T04:36:35;4.50;;;3.65;;
44606;SDS011;30315;46.072;14.474;2023-08-12T04:39:04;3.80;;;3.60;;
44606;SDS011;30315;46.072;14.474;2023-08-12T04:41:31;4.38;;;3.97;;
44606;SDS011;30315;46.072;14.474;2023-08-12T04:44:02;4.55;;;3.55;;
44606;SDS011;30315;46.072;14.474;2023-08-12T04:46:31;5.00;;;3.88;;
44606;SDS011;30315;46.072;14.474;2023-08-12T04:48:59;4.18;;;3.88;;
44606;SDS011;30315;46.072;14.474;2023-08-12T04:51:26;7.32;;;3.90;;
44606;SDS011;30315;46.072;14.474;2023-08-12T04:53:53;5.32;;;4.18;;
44606;SDS011;30315;46.072;14.474;2023-08-12T04:56:20;3.92;;;3.63;;
44606;SDS011;30315;46.072;14.474;2023-08-12T04:58:48;3.92;;;3.63;;
44606;SDS011;30315;46.072;14.474;2023-08-12T05:01:15;5.78;;;3.90;;
44606;SDS011;30315;46.072;14.474;2023-08-12T05:03:42;6.63;;;4.20;;
44606;SDS011;30315;46.072;14.474;2023-08-12T05:06:09;4.50;;;4.20;;
44606;SDS011;30315;46.072;14.474;2023-08-12T05:08:37;5.72;;;4.20;;
44606;SDS011;30315;46.072;14.474;2023-08-12T05:11:04;4.60;;;4.20;;
44606;SDS011;30315;46.072;14.474;2023-08-12T05:13:31;4.93;;;3.95;;
44606;SDS011;30315;46.072;14.474;2023-08-12T05:15:59;5.00;;;4.57;;
44606;SDS011;30315;46.072;14.474;2023-08-12T05:18:26;5.40;;;4.18;;
44606;SDS011;30315;46.072;14.474;2023-08-12T05:20:55;5.30;;;4.25;;
44606;SDS011;30315;46.072;14.474;2023-08-12T05:23:23;8.95;;;4.38;;
44606;SDS011;30315;46.072;14.474;2023-08-12T05:25:50;5.40;;;4.22;;
44606;SDS011;30315;46.072;14.474;2023-08-12T05:28:21;5.38;;;4.97;;
44606;SDS011;30315;46.072;14.474;2023-08-12T05:30:50;4.75;;;4.45;;
44606;SDS011;30315;46.072;14.474;2023-08-12T05:33:17;5.57;;;5.07;;
44606;SDS011;30315;46.072;14.474;2023-08-12T05:35:46;5.50;;;5.00;;
44606;SDS011;30315;46.072;14.474;2023-08-12T05:38:14;5.55;;;5.05;;
44606;SDS011;30315;46.072;14.474;2023-08-12T05:40:42;5.20;;;4.90;;
44606;SDS011;30315;46.072;14.474;2023-08-12T05:43:09;5.90;;;4.95;;
44606;SDS011;30315;46.072;14.474;2023-08-12T05:45:36;5.80;;;4.80;;
44606;SDS011;30315;46.072;14.474;2023-08-12T05:48:04;6.05;;;5.55;;
44606;SDS011;30315;46.072;14.474;2023-08-12T05:50:31;5.40;;;4.88;;
44606;SDS011;30315;46.072;14.474;2023-08-12T05:52:59;7.63;;;4.68;;
44606;SDS011;30315;46.072;14.474;2023-08-12T05:55:26;5.72;;;5.05;;
44606;SDS011;30315;46.072;14.474;2023-08-12T05:57:53;5.53;;;5.03;;
44606;SDS011;30315;46.072;14.474;2023-08-12T06:00:21;6.53;;;5.20;;
44606;SDS011;30315;46.072;14.474;2023-08-12T06:02:48;5.47;;;5.05;;
44606;SDS011;30315;46.072;14.474;2023-08-12T06:05:18;5.50;;;5.10;;
44606;SDS011;30315;46.072;14.474;2023-08-12T06:07:45;5.63;;;5.18;;
44606;SDS011;30315;46.072;14.474;2023-08-12T06:10:12;6.75;;;5.20;;
44606;SDS011;30315;46.072;14.474;2023-08-12T06:12:39;5.90;;;5.40;;
44606;SDS011;30315;46.072;14.474;2023-08-12T06:15:06;6.45;;;5.63;;
44606;SDS011;30315;46.072;14.474;2023-08-12T06:17:33;5.95;;;5.40;;
44606;SDS011;30315;46.072;14.474;2023-08-12T06:20:01;5.97;;;5.47;;
44606;SDS011;30315;46.072;14.474;2023-08-12T06:22:28;10.85;;;5.40;;
44606;SDS011;30315;46.072;14.474;2023-08-12T06:24:55;5.68;;;5.25;;
44606;SDS011;30315;46.072;14.474;2023-08-12T06:27:22;8.98;;;5.85;;
44606;SDS011;30315;46.072;14.474;2023-08-12T06:29:49;6.07;;;5.63;;
44606;SDS011;30315;46.072;14.474;2023-08-12T06:32:16;8.93;;;5.43;;
44606;SDS011;30315;46.072;14.474;2023-08-12T06:34:44;6.22;;;5.80;;
44606;SDS011;30315;46.072;14.474;2023-08-12T06:37:11;6.18;;;5.25;;
44606;SDS011;30315;46.072;14.474;2023-08-12T06:39:38;7.50;;;5.72;;
44606;SDS011;30315;46.072;14.474;2023-08-12T06:42:05;5.97;;;5.47;;
44606;SDS011;30315;46.072;14.474;2023-08-12T06:44:32;6.25;;;5.80;;
44606;SDS011;30315;46.072;14.474;2023-08-12T06:46:59;6.30;;;5.75;;
44606;SDS011;30315;46.072;14.474;2023-08-12T06:49:26;7.18;;;6.22;;
44606;SDS011;30315;46.072;14.474;2023-08-12T06:51:53;6.20;;;5.72;;
44606;SDS011;30315;46.072;14.474;2023-08-12T06:54:20;7.72;;;5.80;;
44606;SDS011;30315;46.072;14.474;2023-08-12T06:56:49;5.90;;;5.40;;
44606;SDS011;30315;46.072;14.474;2023-08-12T06:59:17;5.93;;;5.30;;
44606;SDS011;30315;46.072;14.474;2023-08-12T07:01:44;6.68;;;5.95;;
44606;SDS011;30315;46.072;14.474;2023-08-12T07:04:12;6.60;;;6.03;;
44606;SDS011;30315;46.072;14.474;2023-08-12T07:06:39;8.15;;;6.63;;
44606;SDS011;30315;46.072;14.474;2023-08-12T07:09:10;8.07;;;5.90;;
44606;SDS011;30315;46.072;14.474;2023-08-12T07:11:43;7.00;;;6.40;;
44606;SDS011;30315;46.072;14.474;2023-08-12T07:14:13;7.28;;;6.50;;
44606;SDS011;30315;46.072;14.474;2023-08-12T07:19:15;8.35;;;7.65;;
44606;SDS011;30315;46.072;14.474;2023-08-12T07:21:45;7.85;;;7.10;;
44606;SDS011;30315;46.072;14.474;2023-08-12T07:24:15;7.63;;;6.93;;
44606;SDS011;30315;46.072;14.474;2023-08-12T07:26:45;9.45;;;7.03;;
44606;SDS011;30315;46.072;14.474;2023-08-12T07:29:16;6.90;;;6.30;;
44606;SDS011;30315;46.072;14.474;2023-08-12T07:31:45;8.30;;;6.07;;
44606;SDS011;30315;46.072;14.474;2023-08-12T07:34:17;8.23;;;6.82;;
44606;SDS011;30315;46.072;14.474;2023-08-12T07:36:46;6.82;;;6.32;;
44606;SDS011;30315;46.072;14.474;2023-08-12T07:39:17;7.75;;;7.00;;
44606;SDS011;30315;46.072;14.474;2023-08-12T07:41:47;7.22;;;6.47;;
44606;SDS011;30315;46.072;14.474;2023-08-12T07:44:17;7.43;;;6.13;;
44606;SDS011;30315;46.072;14.474;2023-08-12T07:46:50;6.88;;;6.15;;
44606;SDS011;30315;46.072;14.474;2023-08-12T07:49:18;7.22;;;6.53;;
44606;SDS011;30315;46.072;14.474;2023-08-12T07:51:46;7.22;;;6.53;;
44606;SDS011;30315;46.072;14.474;2023-08-12T07:54:16;7.20;;;6.53;;
44606;SDS011;30315;46.072;14.474;2023-08-12T07:56:47;6.35;;;5.85;;
44606;SDS011;30315;46.072;14.474;2023-08-12T07:59:19;7.25;;;6.38;;
44606;SDS011;30315;46.072;14.474;2023-08-12T08:01:51;6.20;;;5.70;;
44606;SDS011;30315;46.072;14.474;2023-08-12T08:04:20;6.30;;;5.90;;
44606;SDS011;30315;46.072;14.474;2023-08-12T08:06:51;6.18;;;5.65;;
44606;SDS011;30315;46.072;14.474;2023-08-12T08:09:19;5.60;;;5.20;;
44606;SDS011;30315;46.072;14.474;2023-08-12T08:11:46;6.32;;;5.72;;
44606;SDS011;30315;46.072;14.474;2023-08-12T08:14:14;6.05;;;5.00;;
44606;SDS011;30315;46.072;14.474;2023-08-12T08:16:41;5.80;;;5.22;;
44606;SDS011;30315;46.072;14.474;2023-08-12T08:19:12;6.63;;;4.78;;
44606;SDS011;30315;46.072;14.474;2023-08-12T08:21:40;6.20;;;4.90;;
44606;SDS011;30315;46.072;14.474;2023-08-12T08:24:07;5.22;;;4.70;;
44606;SDS011;30315;46.072;14.474;2023-08-12T08:26:38;4.80;;;4.40;;
44606;SDS011;30315;46.072;14.474;2023-08-12T08:31:34;4.47;;;4.18;;
44606;SDS011;30315;46.072;14.474;2023-08-12T08:34:01;4.10;;;3.90;;
44606;SDS011;30315;46.072;14.474;2023-08-12T08:36:28;4.45;;;4.15;;
44606;SDS011;30315;46.072;14.474;2023-08-12T08:38:55;4.32;;;4.03;;
44606;SDS011;30315;46.072;14.474;2023-08-12T08:41:23;3.88;;;3.67;;
44606;SDS011;30315;46.072;14.474;2023-08-12T08:43:52;3.57;;;3.27;;
44606;SDS011;30315;46.072;14.474;2023-08-12T08:46:22;3.30;;;3.10;;
44606;SDS011;30315;46.072;14.474;2023-08-12T08:48:49;3.45;;;3.08;;
44606;SDS011;30315;46.072;14.474;2023-08-12T08:51:19;3.42;;;3.05;;
44606;SDS011;30315;46.072;14.474;2023-08-12T08:53:47;3.20;;;3.00;;
44606;SDS011;30315;46.072;14.474;2023-08-12T08:56:17;4.13;;;3.30;;
44606;SDS011;30315;46.072;14.474;2023-08-12T08:58:47;3.25;;;3.05;;
44606;SDS011;30315;46.072;14.474;2023-08-12T09:01:15;4.03;;;3.50;;
44606;SDS011;30315;46.072;14.474;2023-08-12T09:03:50;4.00;;;3.70;;
44606;SDS011;30315;46.072;14.474;2023-08-12T09:06:21;3.60;;;3.40;;
44606;SDS011;30315;46.072;14.474;2023-08-12T09:08:51;5.63;;;3.83;;
44606;SDS011;30315;46.072;14.474;2023-08-12T09:11:19;4.13;;;3.72;;
44606;SDS011;30315;46.072;14.474;2023-08-12T09:13:47;3.47;;;3.17;;
44606;SDS011;30315;46.072;14.474;2023-08-12T09:16:15;3.35;;;3.05;;
44606;SDS011;30315;46.072;14.474;2023-08-12T09:18:42;3.40;;;3.20;;
44606;SDS011;30315;46.072;14.474;2023-08-12T09:21:11;3.13;;;2.92;;
44606;SDS011;30315;46.072;14.474;2023-08-12T09:23:39;3.38;;;3.08;;
44606;SDS011;30315;46.072;14.474;2023-08-12T09:26:12;3.23;;;3.03;;
44606;SDS011;30315;46.072;14.474;2023-08-12T09:28:44;3.67;;;3.38;;
44606;SDS011;30315;46.072;14.474;2023-08-12T09:31:36;3.50;;;3.20;;
44606;SDS011;30315;46.072;14.474;2023-08-12T09:34:00;4.35;;;3.17;;
44606;SDS011;30315;46.072;14.474;2023-08-12T09:36:31;3.47;;;3.28;;
44606;SDS011;30315;46.072;14.474;2023-08-12T09:39:00;3.20;;;3.00;;
44606;SDS011;30315;46.072;14.474;2023-08-12T09:41:32;3.50;;;3.20;;
44606;SDS011;30315;46.072;14.474;2023-08-12T09:44:02;3.97;;;3.22;;
44606;SDS011;30315;46.072;14.474;2023-08-12T09:46:29;5.05;;;3.30;;
44606;SDS011;30315;46.072;14.474;2023-08-12T09:48:59;2.90;;;2.70;;
44606;SDS011;30315;46.072;14.474;2023-08-12T09:51:26;2.63;;;2.42;;
44606;SDS011;30315;46.072;14.474;2023-08-12T09:54:00;2.20;;;2.10;;
44606;SDS011;30315;46.072;14.474;2023-08-12T09:56:27;2.35;;;2.15;;
44606;SDS011;30315;46.072;14.474;2023-08-12T09:59:00;2.47;;;2.35;;
44606;SDS011;30315;46.072;14.474;2023-08-12T10:01:32;2.60;;;2.40;;
44606;SDS011;30315;46.072;14.474;2023-08-12T10:04:00;2.40;;;2.20;;
44606;SDS011;30315;46.072;14.474;2023-08-12T10:06:28;2.85;;;2.20;;
44606;SDS011;30315;46.072;14.474;2023-08-12T10:08:55;3.60;;;2.08;;
44606;SDS011;30315;46.072;14.474;2023-08-12T10:11:24;2.40;;;2.20;;
44606;SDS011;30315;46.072;14.474;2023-08-12T10:13:52;2.17;;;1.98;;
44606;SDS011;30315;46.072;14.474;2023-08-12T10:16:19;3.35;;;2.50;;
44606;SDS011;30315;46.072;14.474;2023-08-12T10:18:47;2.35;;;2.15;;
44606;SDS011;30315;46.072;14.474;2023-08-12T10:21:15;2.20;;;2.10;;
44606;SDS011;30315;46.072;14.474;2023-08-12T10:23:43;2.20;;;2.05;;
44606;SDS011;30315;46.072;14.474;2023-08-12T10:26:13;2.47;;;2.38;;
44606;SDS011;30315;46.072;14.474;2023-08-12T10:28:41;2.70;;;2.50;;
44606;SDS011;30315;46.072;14.474;2023-08-12T10:31:10;2.42;;;2.20;;
44606;SDS011;30315;46.072;14.474;2023-08-12T10:33:38;3.10;;;2.70;;
44606;SDS011;30315;46.072;14.474;2023-08-12T10:36:06;2.08;;;1.98;;
44606;SDS011;30315;46.072;14.474;2023-08-12T10:38:34;2.47;;;2.28;;
44606;SDS011;30315;46.072;14.474;2023-08-12T10:41:15;2.60;;;2.40;;
44606;SDS011;30315;46.072;14.474;2023-08-12T10:43:52;2.60;;;2.50;;
44606;SDS011;30315;46.072;14.474;2023-08-12T10:46:22;2.85;;;2.65;;
44606;SDS011;30315;46.072;14.474;2023-08-12T10:48:58;2.85;;;2.63;;
44606;SDS011;30315;46.072;14.474;2023-08-12T10:54:20;2.55;;;2.30;;
44606;SDS011;30315;46.072;14.474;2023-08-12T11:05:01;2.72;;;2.53;;
44606;SDS011;30315;46.072;14.474;2023-08-12T11:07:34;2.33;;;2.15;;
44606;SDS011;30315;46.072;14.474;2023-08-12T11:10:16;2.50;;;2.30;;
44606;SDS011;30315;46.072;14.474;2023-08-12T11:15:32;2.53;;;2.10;;
44606;SDS011;30315;46.072;14.474;2023-08-12T11:18:04;2.88;;;2.63;;
44606;SDS011;30315;46.072;14.474;2023-08-12T11:20:33;2.15;;;2.05;;
44606;SDS011;30315;46.072;14.474;2023-08-12T11:23:01;3.10;;;2.85;;
44606;SDS011;30315;46.072;14.474;2023-08-12T11:25:30;3.00;;;2.78;;
44606;SDS011;30315;46.072;14.474;2023-08-12T11:27:58;3.47;;;3.22;;
44606;SDS011;30315;46.072;14.474;2023-08-12T11:30:25;3.97;;;3.55;;
44606;SDS011;30315;46.072;14.474;2023-08-12T11:32:58;3.33;;;2.65;;
44606;SDS011;30315;46.072;14.474;2023-08-12T11:35:27;3.05;;;2.90;;
44606;SDS011;30315;46.072;14.474;2023-08-12T11:37:56;3.63;;;3.33;;
44606;SDS011;30315;46.072;14.474;2023-08-12T11:40:24;3.17;;;2.97;;
44606;SDS011;30315;46.072;14.474;2023-08-12T11:42:54;2.28;;;2.08;;
44606;SDS011;30315;46.072;14.474;2023-08-12T11:45:24;2.90;;;2.70;;
44606;SDS011;30315;46.072;14.474;2023-08-12T11:47:53;2.90;;;2.70;;
44606;SDS011;30315;46.072;14.474;2023-08-12T11:50:23;4.33;;;2.70;;
44606;SDS011;30315;46.072;14.474;2023-08-12T11:52:52;2.40;;;2.30;;
44606;SDS011;30315;46.072;14.474;2023-08-12T11:55:21;2.80;;;2.70;;
44606;SDS011;30315;46.072;14.474;2023-08-12T11:57:50;3.08;;;2.42;;
44606;SDS011;30315;46.072;14.474;2023-08-12T12:00:18;3.72;;;2.95;;
44606;SDS011;30315;46.072;14.474;2023-08-12T12:02:54;2.70;;;2.50;;
44606;SDS011;30315;46.072;14.474;2023-08-12T12:05:28;3.03;;;2.83;;
44606;SDS011;30315;46.072;14.474;2023-08-12T12:08:02;3.05;;;2.83;;
44606;SDS011;30315;46.072;14.474;2023-08-12T12:15:29;2.60;;;2.40;;
44606;SDS011;30315;46.072;14.474;2023-08-12T12:17:57;3.17;;;2.70;;
44606;SDS011;30315;46.072;14.474;2023-08-12T12:20:25;2.80;;;2.60;;
44606;SDS011;30315;46.072;14.474;2023-08-12T12:22:54;3.10;;;2.80;;
44606;SDS011;30315;46.072;14.474;2023-08-12T12:25:22;2.67;;;2.40;;
44606;SDS011;30315;46.072;14.474;2023-08-12T12:27:49;2.85;;;2.65;;
44606;SDS011;30315;46.072;14.474;2023-08-12T12:30:19;2.40;;;2.30;;
44606;SDS011;30315;46.072;14.474;2023-08-12T12:32:48;2.57;;;2.37;;
44606;SDS011;30315;46.072;14.474;2023-08-12T12:35:15;3.00;;;2.80;;
44606;SDS011;30315;46.072;14.474;2023-08-12T12:37:42;2.20;;;2.10;;
44606;SDS011;30315;46.072;14.474;2023-08-12T12:40:10;2.50;;;2.30;;
44606;SDS011;30315;46.072;14.474;2023-08-12T12:42:38;2.30;;;2.17;;
44606;SDS011;30315;46.072;14.474;2023-08-12T12:45:05;4.30;;;2.05;;
44606;SDS011;30315;46.072;14.474;2023-08-12T12:47:33;2.00;;;1.90;;
44606;SDS011;30315;46.072;14.474;2023-08-12T12:50:00;1.90;;;1.80;;
44606;SDS011;30315;46.072;14.474;2023-08-12T12:52:27;1.92;;;1.70;;
44606;SDS011;30315;46.072;14.474;2023-08-12T12:54:54;1.92;;;1.77;;
44606;SDS011;30315;46.072;14.474;2023-08-12T12:57:22;1.90;;;1.77;;
44606;SDS011;30315;46.072;14.474;2023-08-12T12:59:49;2.75;;;1.80;;
44606;SDS011;30315;46.072;14.474;2023-08-12T13:02:16;2.03;;;1.92;;
44606;SDS011;30315;46.072;14.474;2023-08-12T13:04:43;2.50;;;2.30;;
44606;SDS011;30315;46.072;14.474;2023-08-12T13:07:11;1.60;;;1.50;;
44606;SDS011;30315;46.072;14.474;2023-08-12T13:09:38;3.15;;;2.17;;
44606;SDS011;30315;46.072;14.474;2023-08-12T13:12:07;1.75;;;1.65;;
44606;SDS011;30315;46.072;14.474;2023-08-12T13:14:34;2.83;;;1.90;;
44606;SDS011;30315;46.072;14.474;2023-08-12T13:17:01;1.90;;;1.80;;
44606;SDS011;30315;46.072;14.474;2023-08-12T13:19:29;1.80;;;1.70;;
44606;SDS011;30315;46.072;14.474;2023-08-12T13:21:56;1.80;;;1.70;;
44606;SDS011;30315;46.072;14.474;2023-08-12T13:24:23;2.70;;;1.92;;
44606;SDS011;30315;46.072;14.474;2023-08-12T13:26:51;2.10;;;2.00;;
44606;SDS011;30315;46.072;14.474;2023-08-12T13:29:19;2.10;;;1.92;;
44606;SDS011;30315;46.072;14.474;2023-08-12T13:31:46;2.40;;;2.20;;
44606;SDS011;30315;46.072;14.474;2023-08-12T13:34:13;1.90;;;1.80;;
44606;SDS011;30315;46.072;14.474;2023-08-12T13:36:41;2.40;;;1.90;;
44606;SDS011;30315;46.072;14.474;2023-08-12T13:39:08;1.95;;;1.85;;
44606;SDS011;30315;46.072;14.474;2023-08-12T13:41:35;3.22;;;2.10;;
44606;SDS011;30315;46.072;14.474;2023-08-12T13:44:02;1.98;;;1.88;;
44606;SDS011;30315;46.072;14.474;2023-08-12T13:46:29;2.20;;;2.10;;
44606;SDS011;30315;46.072;14.474;2023-08-12T13:48:56;2.03;;;1.90;;
44606;SDS011;30315;46.072;14.474;2023-08-12T13:51:23;1.92;;;1.83;;
44606;SDS011;30315;46.072;14.474;2023-08-12T13:53:51;1.88;;;1.70;;
44606;SDS011;30315;46.072;14.474;2023-08-12T13:56:18;1.90;;;1.80;;
44606;SDS011;30315;46.072;14.474;2023-08-12T13:58:46;2.08;;;1.88;;
44606;SDS011;30315;46.072;14.474;2023-08-12T14:01:13;2.00;;;1.90;;
44606;SDS011;30315;46.072;14.474;2023-08-12T14:03:41;2.17;;;2.08;;
44606;SDS011;30315;46.072;14.474;2023-08-12T14:06:08;2.03;;;1.92;;
44606;SDS011;30315;46.072;14.474;2023-08-12T14:08:35;1.90;;;1.80;;
44606;SDS011;30315;46.072;14.474;2023-08-12T14:11:03;2.10;;;2.00;;
44606;SDS011;30315;46.072;14.474;2023-08-12T14:13:30;2.95;;;1.77;;
44606;SDS011;30315;46.072;14.474;2023-08-12T14:15:57;2.00;;;1.90;;
44606;SDS011;30315;46.072;14.474;2023-08-12T14:18:24;3.85;;;1.95;;
44606;SDS011;30315;46.072;14.474;2023-08-12T14:20:51;1.80;;;1.70;;
44606;SDS011;30315;46.072;14.474;2023-08-12T14:23:18;2.10;;;2.00;;
44606;SDS011;30315;46.072;14.474;2023-08-12T14:25:46;2.00;;;1.90;;
44606;SDS011;30315;46.072;14.474;2023-08-12T14:28:13;2.00;;;1.90;;
44606;SDS011;30315;46.072;14.474;2023-08-12T14:30:40;2.53;;;2.05;;
44606;SDS011;30315;46.072;14.474;2023-08-12T14:33:07;2.10;;;2.00;;
44606;SDS011;30315;46.072;14.474;2023-08-12T14:35:34;2.20;;;1.80;;
44606;SDS011;30315;46.072;14.474;2023-08-12T14:38:05;2.00;;;1.90;;
44606;SDS011;30315;46.072;14.474;2023-08-12T14:40:32;1.90;;;1.80;;
44606;SDS011;30315;46.072;14.474;2023-08-12T14:43:00;1.90;;;1.80;;
44606;SDS011;30315;46.072;14.474;2023-08-12T14:45:28;2.22;;;2.05;;
44606;SDS011;30315;46.072;14.474;2023-08-12T14:47:55;2.10;;;1.90;;
44606;SDS011;30315;46.072;14.474;2023-08-12T14:50:23;1.75;;;1.65;;
44606;SDS011;30315;46.072;14.474;2023-08-12T14:52:50;3.05;;;2.17;;
44606;SDS011;30315;46.072;14.474;2023-08-12T14:55:17;1.80;;;1.70;;
44606;SDS011;30315;46.072;14.474;2023-08-12T14:57:45;2.05;;;1.75;;
44606;SDS011;30315;46.072;14.474;2023-08-12T15:00:12;2.20;;;2.10;;
44606;SDS011;30315;46.072;14.474;2023-08-12T15:02:41;2.10;;;1.63;;
44606;SDS011;30315;46.072;14.474;2023-08-12T15:05:09;1.83;;;1.73;;
44606;SDS011;30315;46.072;14.474;2023-08-12T15:07:36;2.10;;;1.90;;
44606;SDS011;30315;46.072;14.474;2023-08-12T15:10:04;1.85;;;1.75;;
44606;SDS011;30315;46.072;14.474;2023-08-12T15:12:31;2.25;;;2.03;;